Skip Navigation Links
NOAA logo - Click to go to the NOAA homepage
NOAA's National Weather Service
Alaska Aviation Weather Unit
  NWS logo - Click to go to the NWS homepage
Left Navbar Graphic     08 AKDT = 16 GMT

   
NOAA is celebrating 200 years of science, service, and stewardship. Visit the NOAA 200th celebration Web site to learn more.
USA.gov is the U.S. Government's official Web portal to all Federal, state and local government Web resources and services.
Facebook
NWS on Facebook

Important Change Regarding the AAWU Web Presence

 

Over the last several months, the AAWU has been working to navigate its webpages to a nationally supported server. Security, as well as other needs, have necessitated the change.  In the process, we have made an effort to enhance the functionality of our website, as well as some of our products. As of June 20, 2017, aawu.arh.noaa.gov will be discontinued. The new AAWU web address is weather.gov/aawu. It is now live and will run in-parallel with the old site until it is discontinued. Please send any feedback or questions regarding the new webpages to nws.ar.aawu.webauthors@noaa.gov.  Thank you for your patience during this time of transition.
AAWU Home :: Display TAF Add Bookmark
TAF PAKW 291120Z 2912/3012 VRB03KT P6SM OVC012
     FM291800 21006KT P6SM BKN015 BKN160
     FM292200 22006KT P6SM BKN025 BKN150
     FM300600 VRB03KT P6SM OVC050
      AMD LTD TO CLD VIS AND WIND=

METAR PAKW 291053Z AUTO 00000KT 10SM OVC012 09/06 A3008 RMK AO2 SLP184 T00940061 TSNO $= METAR PAKW 291153Z AUTO 00000KT 9SM OVC012 09/06 A3007 RMK AO2 SLP184 T00940061 10094 20078 50002 TSNO $= SPECI PAKW 291225Z AUTO 00000KT 10SM OVC008 09/07 A3007 RMK AO2 CIG 008V011 T00940067 TSNO $= SPECI PAKW 291241Z AUTO 00000KT 10SM OVC010 09/07 A3007 RMK AO2 T00890067 TSNO $= METAR PAKW 291253Z AUTO 00000KT 10SM OVC010 09/07 A3007 RMK AO2 SLP182 T00890067 TSNO $= SPECI PAKW 291308Z AUTO 00000KT 10SM OVC011 09/07 A3007 RMK AO2 T00890067 TSNO $= METAR PAKW 291353Z AUTO 00000KT 10SM OVC011 09/07 A3007 RMK AO2 SLP181 T00940067 TSNO $= SPECI PAKW 291414Z AUTO 00000KT 8SM OVC010 09/07 A3007 RMK AO2 T00940067 TSNO $= SPECI PAKW 291442Z AUTO 00000KT 10SM OVC011 09/07 A3007 RMK AO2 CIG 008V013 T00940067 TSNO $= METAR PAKW 291453Z AUTO 00000KT 9SM OVC011 09/07 A3007 RMK AO2 CIG 008V012 SLP181 T00940067 56003 TSNO $= SPECI PAKW 291502Z AUTO 00000KT 10SM OVC010 09/07 A3006 RMK AO2 CIG 007V012 T00940067 TSNO $= SPECI PAKW 291522Z AUTO 00000KT 8SM OVC008 09/07 A3006 RMK AO2 CIG 007V013 T00940072 TSNO $= SPECI PAKW 291548Z AUTO 00000KT 10SM OVC012 09/07 A3006 RMK AO2 TSNO $= METAR PAKW 291553Z AUTO 00000KT 10SM FEW007 OVC012 09/07 A3006 RMK AO2 SLP180 T00940072 TSNO $= SPECI PAKW 291620Z AUTO 00000KT 10SM SCT012 OVC018 10/07 A3006 RMK AO2 T01000067 TSNO $= SPECI PAKW 291634Z AUTO 00000KT 10SM BKN009 OVC017 10/07 A3006 RMK AO2 T01000067 TSNO $= METAR PAKW 291651Z AUTO 00000KT 10SM SCT010 OVC017 11/07 A3006 RMK AO2 SLP179 T01060067 TSNO $=
 Alaska TAF Map

NOAA's National Weather Service
Alaska Aviation Weather Unit
6930 Sand Lake Road
Anchorage, AK 99502-1845
Disclaimer
Credits
Glossary
Privacy Policy
About Us
Career Opportunities
Contact AAWU Internet Services Site last modified: April, 17th 2012